Check out our new BloomSky Weather System.

Active alerts

Houston, TX
  Details for Houston, TX Special Weather Statement
Galveston, TX
  Details for Galveston, TX Special Weather Statement


Thunder radar  blitzortung!


Rain radar more information rain snow radar


Visit our other weather sites:

Template documentation
and downloads

And another site



Weather Underground History page Text

Daily Summary for February 5, 2018 Units:  Metric    English   Both
« Previous Day
Next Day »
Daily Weekly Monthly Yearly Custom
  High: Low: Average:
Temperature: -17.8 °C 9.6 °C 13.3 °C
Dew Point: -17.8 °C 8 °C 11.4 °C
Humidity: Humidity % 78 % 89 %
Wind Speed: 0 km/h 0 km/h 2.7 km/h
Wind Gust: 0 km/h - -
Wind:- - SSE
Pressure: 0 hPa 1017.2 hPa -
Precipitation: 0 mm    
Historical Graphs
 
 
Tabular Data for February 5, 2018
Time Temperature Dew Point Pressure Wind Wind Speed Wind Gust Humidity Rainfall Rate (Hourly)
-17.8 °C -17.8 °C 0 hPa Calm     Humidity % 0 mm
00:00 12.7 °C 12.2 °C 1020.2 hPa NNW 1.6 km/h 3.2 km/h 97 % 0 mm
00:05 12.7 °C 12.2 °C 1020.2 hPa Calm   3.2 km/h 97 % 0 mm
00:10 12.8 °C 12.3 °C 1020.2 hPa NNE 1.6 km/h 4.8 km/h 97 % 0 mm
00:15 12.8 °C 12.3 °C 1020.2 hPa Calm   4.8 km/h 97 % 0 mm
00:20 12.8 °C 12.3 °C 1020.2 hPa NW 1.6 km/h 4.8 km/h 97 % 0 mm
00:25 12.9 °C 12.4 °C 1020.2 hPa North 4.8 km/h 4.8 km/h 97 % 0 mm
00:30 12.9 °C 12.4 °C 1020.2 hPa Calm   4.8 km/h 97 % 0 mm
00:35 12.9 °C 12.4 °C 1020.2 hPa NNW 1.6 km/h 4.8 km/h 97 % 0 mm
00:40 12.9 °C 12.4 °C 1020.2 hPa NNW 1.6 km/h 4.8 km/h 97 % 0 mm
00:45 13 °C 12.5 °C 1020.2 hPa NNW 1.6 km/h 4.8 km/h 97 % 0 mm
00:50 13 °C 12.5 °C 1020.2 hPa Calm   8 km/h 97 % 0 mm
00:55 13.1 °C 12.6 °C 1020.2 hPa Calm   9.7 km/h 97 % 0 mm
01:00 13.1 °C 12.6 °C 1020.2 hPa Calm   9.7 km/h 97 % 0 mm
01:05 13.1 °C 12.6 °C 1020.2 hPa Calm   9.7 km/h 97 % 0 mm
01:10 13.2 °C 12.6 °C 1020.2 hPa Calm   9.7 km/h 96 % 0 mm
01:15 13.2 °C 12.6 °C 1020.2 hPa Calm   8 km/h 96 % 0 mm
01:20 13.2 °C 12.6 °C 1020.2 hPa Calm   8 km/h 96 % 0 mm
01:25 13.2 °C 12.6 °C 1020.2 hPa North 8 km/h 8 km/h 96 % 0 mm
01:30 13.2 °C 12.4 °C 1020.2 hPa NW 3.2 km/h 12.9 km/h 95 % 0 mm
01:35 13.2 °C 12.4 °C 1020.2 hPa North 4.8 km/h 12.9 km/h 95 % 0 mm
01:40 13.2 °C 12.4 °C 1020.2 hPa Calm   12.9 km/h 95 % 0 mm
01:45 13.2 °C 12.3 °C 1020.2 hPa North 1.6 km/h 9.7 km/h 94 % 0 mm
01:50 13.2 °C 12.3 °C 1020.2 hPa NNE 1.6 km/h 9.7 km/h 94 % 0 mm
01:55 13.2 °C 12.3 °C 1019.9 hPa NE 1.6 km/h 11.3 km/h 94 % 0 mm
02:00 13.1 °C 12.2 °C 1019.9 hPa Calm   11.3 km/h 94 % 0 mm
02:05 13.1 °C 12.2 °C 1019.9 hPa Calm   11.3 km/h 94 % 0 mm
02:10 13.1 °C 12.2 °C 1019.9 hPa Calm   9.7 km/h 94 % 0 mm
02:15 13 °C 12.1 °C 1019.9 hPa North 3.2 km/h 9.7 km/h 94 % 0 mm
02:20 12.9 °C 12 °C 1019.9 hPa NNW 3.2 km/h 9.7 km/h 94 % 0 mm
02:25 12.9 °C 12 °C 1019.9 hPa ENE 1.6 km/h 9.7 km/h 94 % 0 mm
02:30 12.9 °C 12 °C 1019.9 hPa NNW 4.8 km/h 9.7 km/h 94 % 0 mm
02:35 12.8 °C 11.9 °C 1019.9 hPa NW 3.2 km/h 9.7 km/h 94 % 0 mm
02:40 12.7 °C 11.8 °C 1019.9 hPa NNW 4.8 km/h 12.9 km/h 94 % 0 mm
02:45 12.6 °C 11.7 °C 1019.9 hPa North 8 km/h 12.9 km/h 94 % 0 mm
02:51 12.4 °C 11.6 °C 1019.9 hPa Calm   12.9 km/h 95 % 0 mm
02:56 12.3 °C 11.5 °C 1019.9 hPa NW 8 km/h 12.9 km/h 95 % 0 mm
03:01 12.2 °C 11.4 °C 1019.9 hPa North 6.4 km/h 12.9 km/h 95 % 0 mm
03:06 12.1 °C 11.3 °C 1019.9 hPa Calm   12.9 km/h 95 % 0 mm
03:11 12.1 °C 11.3 °C 1019.9 hPa ENE 1.6 km/h 12.9 km/h 95 % 0 mm
03:16 12 °C 11.2 °C 1020.2 hPa ENE 3.2 km/h 12.9 km/h 95 % 0 mm
03:21 11.9 °C 11.1 °C 1019.9 hPa Calm   12.9 km/h 95 % 0 mm
03:26 11.8 °C 11 °C 1019.9 hPa NNE 8 km/h 12.9 km/h 95 % 0 mm
03:31 11.7 °C 10.9 °C 1019.9 hPa ESE 3.2 km/h 12.9 km/h 95 % 0 mm
03:36 11.7 °C 10.9 °C 1019.9 hPa North 1.6 km/h 11.3 km/h 95 % 0 mm
03:41 11.5 °C 10.6 °C 1019.9 hPa WNW 1.6 km/h 11.3 km/h 94 % 0 mm
03:46 11.4 °C 10.5 °C 1019.9 hPa NW 1.6 km/h 12.9 km/h 94 % 0 mm
03:51 11.3 °C 10.2 °C 1019.9 hPa Calm   14.5 km/h 93 % 0 mm
03:56 11.2 °C 10.1 °C 1019.9 hPa Calm   14.5 km/h 93 % 0 mm
04:01 11.1 °C 10 °C 1019.9 hPa North 4.8 km/h 14.5 km/h 93 % 0 mm
04:06 11 °C 9.8 °C 1019.9 hPa Calm   11.3 km/h 92 % 0 mm
04:11 10.9 °C 9.5 °C 1019.9 hPa NNW 3.2 km/h 12.9 km/h 91 % 0 mm
04:16 10.8 °C 9.4 °C 1019.9 hPa NNW 4.8 km/h 12.9 km/h 91 % 0 mm
04:21 10.8 °C 9.4 °C 1019.9 hPa NNE 3.2 km/h 12.9 km/h 91 % 0 mm
04:26 10.7 °C 9.3 °C 1019.9 hPa NNW 6.4 km/h 12.9 km/h 91 % 0 mm
04:31 10.7 °C 9.3 °C 1019.9 hPa NE 4.8 km/h 9.7 km/h 91 % 0 mm
04:36 10.6 °C 9.2 °C 1019.9 hPa Calm   9.7 km/h 91 % 0 mm
04:41 10.5 °C 9.1 °C 1019.9 hPa North 1.6 km/h 9.7 km/h 91 % 0 mm
04:46 10.5 °C 9.1 °C 1019.9 hPa Calm   9.7 km/h 91 % 0 mm
04:51 10.4 °C 9 °C 1019.9 hPa NNE 3.2 km/h 8 km/h 91 % 0 mm
04:56 10.4 °C 9 °C 1019.9 hPa NNW 4.8 km/h 8 km/h 91 % 0 mm
05:01 10.3 °C 8.9 °C 1020.2 hPa NNW 1.6 km/h 8 km/h 91 % 0 mm
05:06 10.3 °C 8.9 °C 1020.2 hPa NW 1.6 km/h 8 km/h 91 % 0 mm
05:11 10.3 °C 8.9 °C 1020.2 hPa WNW 1.6 km/h 11.3 km/h 91 % 0 mm
05:16 10.2 °C 8.8 °C 1020.2 hPa NW 1.6 km/h 11.3 km/h 91 % 0 mm
05:21 10.2 °C 8.8 °C 1020.5 hPa Calm   11.3 km/h 91 % 0 mm
05:26 10.1 °C 8.5 °C 1020.5 hPa NW 3.2 km/h 9.7 km/h 90 % 0 mm
05:31 10.1 °C 8.5 °C 1020.5 hPa NW 6.4 km/h 9.7 km/h 90 % 0 mm
05:36 10 °C 8.4 °C 1020.5 hPa Calm   12.9 km/h 90 % 0 mm
05:41 9.9 °C 8.3 °C 1020.5 hPa NNW 1.6 km/h 12.9 km/h 90 % 0 mm
05:46 9.9 °C 8.3 °C 1020.5 hPa NNW 3.2 km/h 12.9 km/h 90 % 0 mm
05:51 9.9 °C 8.3 °C 1020.5 hPa NNW 3.2 km/h 9.7 km/h 90 % 0 mm
05:56 9.8 °C 8.2 °C 1020.9 hPa NNW 1.6 km/h 11.3 km/h 90 % 0 mm
06:01 9.8 °C 8.2 °C 1020.9 hPa NNW 8 km/h 11.3 km/h 90 % 0 mm
06:06 9.8 °C 8.2 °C 1020.9 hPa North 4.8 km/h 11.3 km/h 90 % 0 mm
06:11 9.8 °C 8.4 °C 1021.2 hPa Calm   9.7 km/h 91 % 0 mm
06:16 9.7 °C 8.1 °C 1021.2 hPa North 3.2 km/h 9.7 km/h 90 % 0 mm
06:21 9.7 °C 8.1 °C 1021.2 hPa NE 8 km/h 8 km/h 90 % 0 mm
06:26 9.7 °C 8.1 °C 1021.2 hPa North 1.6 km/h 11.3 km/h 90 % 0 mm
06:31 9.7 °C 8.1 °C 1021.2 hPa Calm   11.3 km/h 90 % 0 mm
06:36 9.7 °C 8.1 °C 1021.2 hPa NW 1.6 km/h 11.3 km/h 90 % 0 mm
06:41 9.7 °C 8.1 °C 1021.6 hPa NW 1.6 km/h 8 km/h 90 % 0 mm
06:46 9.6 °C 8 °C 1021.6 hPa Calm   9.7 km/h 90 % 0 mm
06:51 9.6 °C 8 °C 1021.2 hPa Calm   9.7 km/h 90 % 0 mm
06:56 9.7 °C 8.1 °C 1021.2 hPa NNE 3.2 km/h 9.7 km/h 90 % 0 mm
07:01 9.6 °C 8 °C 1021.2 hPa NNW 4.8 km/h 6.4 km/h 90 % 0 mm
07:06 9.6 °C 8 °C 1021.6 hPa NW 1.6 km/h 6.4 km/h 90 % 0 mm
07:11 9.6 °C 8.2 °C 1021.6 hPa NNW 1.6 km/h 6.4 km/h 91 % 0 mm
07:16 9.6 °C 8.2 °C 1021.6 hPa NNW 1.6 km/h 6.4 km/h 91 % 0 mm
07:21 9.6 °C 8.2 °C 1021.6 hPa Calm   8 km/h 91 % 0 mm
07:26 9.6 °C 8.2 °C 1021.6 hPa NNW 3.2 km/h 8 km/h 91 % 0 mm
07:31 9.7 °C 8.3 °C 1021.6 hPa NE 3.2 km/h 9.7 km/h 91 % 0 mm
07:36 9.7 °C 8.3 °C 1021.6 hPa NW 6.4 km/h 9.7 km/h 91 % 0 mm
07:41 9.7 °C 8.3 °C 1021.6 hPa Calm   9.7 km/h 91 % 0 mm
07:46 9.7 °C 8.3 °C 1021.6 hPa NNE 1.6 km/h 8 km/h 91 % 0 mm
07:51 9.8 °C 8.4 °C 1021.9 hPa NNW 3.2 km/h 8 km/h 91 % 0 mm
07:56 9.8 °C 8.4 °C 1021.9 hPa Calm   6.4 km/h 91 % 0 mm
08:01 9.8 °C 8.4 °C 1021.9 hPa Calm   6.4 km/h 91 % 0 mm
08:06 9.8 °C 8.4 °C 1021.6 hPa NW 1.6 km/h 6.4 km/h 91 % 0 mm
08:11 9.9 °C 8.5 °C 1021.6 hPa NW 3.2 km/h 6.4 km/h 91 % 0 mm
08:16 9.9 °C 8.5 °C 1021.6 hPa NE 1.6 km/h 11.3 km/h 91 % 0 mm
08:21 9.9 °C 8.5 °C 1021.9 hPa NW 3.2 km/h 12.9 km/h 91 % 0 mm
08:26 9.9 °C 8.5 °C 1021.9 hPa ENE 1.6 km/h 12.9 km/h 91 % 0 mm
08:31 10 °C 8.8 °C 1021.9 hPa NE 3.2 km/h 12.9 km/h 92 % 0 mm
08:36 10.1 °C 8.9 °C 1021.9 hPa Calm   8 km/h 92 % 0 mm
08:41 10.2 °C 8.8 °C 1021.9 hPa NNE 1.6 km/h 8 km/h 91 % 0 mm
08:46 10.3 °C 8.9 °C 1021.9 hPa NW 1.6 km/h 8 km/h 91 % 0 mm
08:51 10.4 °C 9 °C 1021.9 hPa Calm   6.4 km/h 91 % 0 mm
08:56 10.5 °C 9.1 °C 1021.9 hPa North 1.6 km/h 6.4 km/h 91 % 0 mm
09:01 10.8 °C 9.4 °C 1021.9 hPa Calm   6.4 km/h 91 % 0 mm
09:06 11.1 °C 9.7 °C 1021.9 hPa Calm   6.4 km/h 91 % 0 mm
09:11 11.4 °C 9.7 °C 1021.9 hPa Calm   6.4 km/h 89 % 0 mm
09:16 11.8 °C 10 °C 1021.9 hPa NNE 3.2 km/h 8 km/h 89 % 0 mm
09:21 11.9 °C 9.8 °C 1021.9 hPa NNE 4.8 km/h 11.3 km/h 87 % 0 mm
09:26 12 °C 9.9 °C 1021.9 hPa Calm   11.3 km/h 87 % 0 mm
09:31 12.2 °C 10.1 °C 1021.9 hPa NNE 6.4 km/h 11.3 km/h 87 % 0 mm
09:36 12.3 °C 10 °C 1021.9 hPa NW 1.6 km/h 9.7 km/h 86 % 0 mm
09:41 12.3 °C 10 °C 1021.6 hPa NE 1.6 km/h 8 km/h 86 % 0 mm
09:46 12.4 °C 10.1 °C 1021.6 hPa ESE 4.8 km/h 6.4 km/h 86 % 0 mm
09:51 12.6 °C 10.3 °C 1021.6 hPa Calm   8 km/h 86 % 0 mm
09:56 12.9 °C 10.4 °C 1021.6 hPa Calm   8 km/h 85 % 0 mm
10:01 13.1 °C 10.5 °C 1021.6 hPa East 1.6 km/h 8 km/h 84 % 0 mm
10:06 13.1 °C 10.3 °C 1021.6 hPa NNW 1.6 km/h 9.7 km/h 83 % 0 mm
10:11 13.2 °C 10.4 °C 1021.6 hPa ENE 1.6 km/h 9.7 km/h 83 % 0 mm
10:16 13.6 °C 10.9 °C 1021.6 hPa ENE 1.6 km/h 9.7 km/h 84 % 0 mm
10:21 13.8 °C 10.6 °C 1021.6 hPa East 8 km/h 9.7 km/h 81 % 0 mm
10:26 14.1 °C 11.1 °C 1021.6 hPa ESE 3.2 km/h 11.3 km/h 82 % 0 mm
10:31 14.3 °C 10.7 °C 1021.6 hPa SE 3.2 km/h 11.3 km/h 79 % 0 mm
10:36 14.2 °C 10.4 °C 1021.2 hPa East 3.2 km/h 11.3 km/h 78 % 0 mm
10:41 14.2 °C 10.8 °C 1021.2 hPa Calm   16.1 km/h 80 % 0 mm
10:46 14.3 °C 10.7 °C 1021.2 hPa SSE 3.2 km/h 16.1 km/h 79 % 0 mm
10:51 14.3 °C 10.7 °C 1021.2 hPa SSE 8 km/h 16.1 km/h 79 % 0 mm
10:56 14.4 °C 10.8 °C 1021.2 hPa Calm   11.3 km/h 79 % 0 mm
11:01 14.4 °C 10.8 °C 1021.2 hPa ESE 12.9 km/h 12.9 km/h 79 % 0 mm
11:06 14.4 °C 10.8 °C 1021.2 hPa East 1.6 km/h 14.5 km/h 79 % 0 mm
11:11 14.6 °C 11 °C 1020.9 hPa SE 3.2 km/h 14.5 km/h 79 % 0 mm
11:16 14.7 °C 11.1 °C 1020.9 hPa SE 3.2 km/h 14.5 km/h 79 % 0 mm
11:21 14.9 °C 11.1 °C 1020.5 hPa SE 4.8 km/h 12.9 km/h 78 % 0 mm
11:26 14.9 °C 11.1 °C 1020.5 hPa East 8 km/h 19.3 km/h 78 % 0 mm
11:31 14.9 °C 11.3 °C 1020.5 hPa SE 3.2 km/h 19.3 km/h 79 % 0 mm
11:36 14.9 °C 11.1 °C 1020.5 hPa ESE 3.2 km/h 19.3 km/h 78 % 0 mm
11:41 14.9 °C 11.1 °C 1020.5 hPa East 3.2 km/h 14.5 km/h 78 % 0 mm
11:46 14.9 °C 11.3 °C 1020.5 hPa SE 12.9 km/h 14.5 km/h 79 % 0 mm
11:51 14.9 °C 11.3 °C 1020.5 hPa ESE 4.8 km/h 17.7 km/h 79 % 0 mm
11:56 14.9 °C 11.5 °C 1020.2 hPa ESE 11.3 km/h 17.7 km/h 80 % 0 mm
12:01 14.9 °C 11.3 °C 1020.2 hPa SE 9.7 km/h 17.7 km/h 79 % 0 mm
12:06 14.9 °C 11.5 °C 1020.2 hPa East 9.7 km/h 16.1 km/h 80 % 0 mm
12:11 14.8 °C 11.4 °C 1020.2 hPa Calm   16.1 km/h 80 % 0 mm
12:16 14.9 °C 11.5 °C 1019.9 hPa SSW 6.4 km/h 16.1 km/h 80 % 0 mm
12:21 15 °C 11.4 °C 1019.9 hPa ESE 4.8 km/h 12.9 km/h 79 % 0 mm
12:26 15.1 °C 11.5 °C 1019.9 hPa ESE 8 km/h 12.9 km/h 79 % 0 mm
12:31 15.2 °C 11.6 °C 1019.9 hPa SSE 6.4 km/h 12.9 km/h 79 % 0 mm
12:36 15.3 °C 11.7 °C 1019.5 hPa East 1.6 km/h 12.9 km/h 79 % 0 mm
12:41 15.4 °C 11.8 °C 1019.5 hPa SSE 3.2 km/h 12.9 km/h 79 % 0 mm
12:46 15.5 °C 11.9 °C 1019.5 hPa ENE 3.2 km/h 12.9 km/h 79 % 0 mm
12:51 15.4 °C 11.8 °C 1019.5 hPa Calm   11.3 km/h 79 % 0 mm
12:56 15.4 °C 11.8 °C 1019.5 hPa ESE 3.2 km/h 11.3 km/h 79 % 0 mm
13:01 15.5 °C 11.9 °C 1019.2 hPa South 6.4 km/h 11.3 km/h 79 % 0 mm
13:06 15.5 °C 12.1 °C 1019.2 hPa Calm   9.7 km/h 80 % 0 mm
13:11 15.6 °C 12 °C 1018.8 hPa SE 8 km/h 9.7 km/h 79 % 0 mm
13:16 15.5 °C 11.9 °C 1018.8 hPa South 3.2 km/h 9.7 km/h 79 % 0 mm
13:21 15.4 °C 12 °C 1018.8 hPa SE 3.2 km/h 11.3 km/h 80 % 0 mm
13:26 15.5 °C 12.1 °C 1018.5 hPa SE 4.8 km/h 11.3 km/h 80 % 0 mm
13:31 15.5 °C 12.1 °C 1018.5 hPa SE 3.2 km/h 11.3 km/h 80 % 0 mm
13:36 15.6 °C 12.2 °C 1018.5 hPa ESE 3.2 km/h 11.3 km/h 80 % 0 mm
13:41 15.6 °C 12.2 °C 1018.5 hPa ESE 8 km/h 12.9 km/h 80 % 0 mm
13:46 15.7 °C 12.3 °C 1018.5 hPa SSE 1.6 km/h 12.9 km/h 80 % 0 mm
13:51 15.8 °C 12.4 °C 1018.5 hPa ENE 4.8 km/h 12.9 km/h 80 % 0 mm
13:57 15.8 °C 12.4 °C 1018.5 hPa SE 6.4 km/h 9.7 km/h 80 % 0 mm
14:02 15.9 °C 12.5 °C 1018.5 hPa ESE 3.2 km/h 11.3 km/h 80 % 0 mm
14:07 15.8 °C 12.2 °C 1018.5 hPa ESE 4.8 km/h 11.3 km/h 79 % 0 mm
14:12 15.8 °C 12.4 °C 1018.5 hPa SE 6.4 km/h 11.3 km/h 80 % 0 mm
14:17 15.7 °C 12.3 °C 1018.2 hPa Calm   9.7 km/h 80 % 0 mm
14:22 15.7 °C 12.3 °C 1018.2 hPa ESE 3.2 km/h 9.7 km/h 80 % 0 mm
14:27 15.7 °C 12.3 °C 1018.2 hPa Calm   9.7 km/h 80 % 0 mm
14:32 15.8 °C 12.4 °C 1018.2 hPa SE 6.4 km/h 8 km/h 80 % 0 mm
14:37 15.8 °C 12.4 °C 1018.2 hPa East 8 km/h 12.9 km/h 80 % 0 mm
14:42 15.7 °C 12.4 °C 1017.8 hPa ESE 3.2 km/h 12.9 km/h 81 % 0 mm
14:47 15.9 °C 12.5 °C 1017.8 hPa Calm   12.9 km/h 80 % 0 mm
14:52 15.9 °C 12.5 °C 1017.8 hPa SSE 8 km/h 12.9 km/h 80 % 0 mm
14:57 15.9 °C 12.6 °C 1017.8 hPa SSE 4.8 km/h 11.3 km/h 81 % 0 mm
15:02 16 °C 12.7 °C 1017.8 hPa SSE 4.8 km/h 11.3 km/h 81 % 0 mm
15:07 16 °C 12.7 °C 1018.2 hPa SE 1.6 km/h 11.3 km/h 81 % 0 mm
15:12 16 °C 12.9 °C 1018.2 hPa SE 4.8 km/h 11.3 km/h 82 % 0 mm
15:17 15.9 °C 12.8 °C 1018.2 hPa South 4.8 km/h 11.3 km/h 82 % 0 mm
15:22 15.9 °C 12.8 °C 1018.2 hPa Calm   11.3 km/h 82 % 0 mm
15:27 15.9 °C 12.6 °C 1018.2 hPa ENE 1.6 km/h 9.7 km/h 81 % 0 mm
15:32 15.8 °C 12.7 °C 1017.8 hPa SE 1.6 km/h 9.7 km/h 82 % 0 mm
15:37 15.9 °C 12.8 °C 1018.2 hPa ENE 1.6 km/h 9.7 km/h 82 % 0 mm
15:42 15.9 °C 12.8 °C 1017.8 hPa SSE 3.2 km/h 9.7 km/h 82 % 0 mm
15:47 15.9 °C 12.8 °C 1017.8 hPa Calm   9.7 km/h 82 % 0 mm
15:52 15.9 °C 13 °C 1017.8 hPa SSE 1.6 km/h 9.7 km/h 83 % 0 mm
15:57 15.9 °C 13 °C 1017.8 hPa ESE 3.2 km/h 9.7 km/h 83 % 0 mm
16:02 15.9 °C 13 °C 1017.8 hPa ESE 3.2 km/h 11.3 km/h 83 % 0 mm
16:07 15.9 °C 13 °C 1017.8 hPa SE 6.4 km/h 11.3 km/h 83 % 0 mm
16:12 15.9 °C 13.2 °C 1017.8 hPa ENE 4.8 km/h 11.3 km/h 84 % 0 mm
16:17 15.9 °C 13.2 °C 1017.8 hPa South 3.2 km/h 8 km/h 84 % 0 mm
16:22 15.9 °C 13.2 °C 1017.8 hPa SE 4.8 km/h 8 km/h 84 % 0 mm
16:27 16 °C 13.3 °C 1017.8 hPa ESE 3.2 km/h 8 km/h 84 % 0 mm
16:32 16.1 °C 13.4 °C 1017.5 hPa SE 3.2 km/h 8 km/h 84 % 0 mm
16:37 15.9 °C 13.2 °C 1017.5 hPa ESE 4.8 km/h 11.3 km/h 84 % 0 mm
16:42 15.8 °C 13.3 °C 1017.8 hPa East 3.2 km/h 11.3 km/h 85 % 0 mm
16:47 15.7 °C 13.4 °C 1017.8 hPa East 3.2 km/h 11.3 km/h 86 % 0 mm
16:52 15.6 °C 13.4 °C 1017.8 hPa SE 3.2 km/h 12.9 km/h 87 % 0 mm
16:57 15.5 °C 13.3 °C 1017.5 hPa SE 3.2 km/h 12.9 km/h 87 % 0 mm
17:02 15.4 °C 13.4 °C 1017.5 hPa ESE 1.6 km/h 12.9 km/h 88 % 0 mm
17:07 15.4 °C 13.4 °C 1017.5 hPa SSE 4.8 km/h 9.7 km/h 88 % 0 mm
17:12 15.4 °C 13.4 °C 1017.5 hPa ESE 4.8 km/h 11.3 km/h 88 % 0 mm
17:17 15.4 °C 13.4 °C 1017.5 hPa SE 8 km/h 11.3 km/h 88 % 0 mm
17:22 15.4 °C 13.4 °C 1017.5 hPa SE 3.2 km/h 11.3 km/h 88 % 0 mm
17:27 15.4 °C 13.2 °C 1017.5 hPa ESE 3.2 km/h 11.3 km/h 87 % 0 mm
17:33 15.4 °C 13.2 °C 1017.5 hPa SSE 1.6 km/h 11.3 km/h 87 % 0 mm
17:38 15.4 °C 13.2 °C 1017.5 hPa SSE 4.8 km/h 8 km/h 87 % 0 mm
17:43 15.4 °C 13.2 °C 1017.5 hPa East 3.2 km/h 8 km/h 87 % 0 mm
17:48 15.4 °C 13.2 °C 1017.5 hPa SE 4.8 km/h 6.4 km/h 87 % 0 mm
17:53 15.4 °C 13.1 °C 1017.5 hPa ESE 3.2 km/h 6.4 km/h 86 % 0 mm
17:58 15.4 °C 13.1 °C 1017.5 hPa SSE 1.6 km/h 4.8 km/h 86 % 0 mm
18:03 15.4 °C 13.1 °C 1017.5 hPa ESE 1.6 km/h 8 km/h 86 % 0 mm
18:08 15.3 °C 13 °C 1017.5 hPa ESE 1.6 km/h 8 km/h 86 % 0 mm
18:13 15.3 °C 13 °C 1017.5 hPa Calm   8 km/h 86 % 0 mm
18:18 15.3 °C 13 °C 1017.5 hPa Calm   3.2 km/h 86 % 0 mm
18:23 15.3 °C 13 °C 1017.5 hPa Calm   3.2 km/h 86 % 0 mm
18:28 15.3 °C 13 °C 1017.2 hPa Calm   4.8 km/h 86 % 0 mm
18:33 15.2 °C 13 °C 1017.2 hPa SE 3.2 km/h 4.8 km/h 87 % 0 mm
18:38 15.2 °C 13 °C 1017.2 hPa East 1.6 km/h 8 km/h 87 % 0 mm
18:43 15.2 °C 13.2 °C 1017.2 hPa SE 1.6 km/h 9.7 km/h 88 % 0 mm
18:48 15.1 °C 13.3 °C 1017.2 hPa ENE 6.4 km/h 9.7 km/h 89 % 0 mm
18:53 14.9 °C 13.1 °C 1017.2 hPa ESE 4.8 km/h 9.7 km/h 89 % 0 mm
18:58 14.8 °C 13.2 °C 1017.2 hPa SSE 3.2 km/h 9.7 km/h 90 % 0 mm
19:03 14.7 °C 13.1 °C 1017.2 hPa ENE 3.2 km/h 9.7 km/h 90 % 0 mm
19:08 14.7 °C 13.2 °C 1017.2 hPa SSE 1.6 km/h 9.7 km/h 91 % 0 mm
19:13 14.6 °C 13.1 °C 1017.2 hPa ESE 1.6 km/h 9.7 km/h 91 % 0 mm
19:18 14.6 °C 13.1 °C 1017.2 hPa ESE 8 km/h 9.7 km/h 91 % 0 mm
19:23 14.6 °C 13.1 °C 1017.2 hPa SSE 6.4 km/h 9.7 km/h 91 % 0 mm
19:28 14.6 °C 13.3 °C 1017.5 hPa East 4.8 km/h 9.7 km/h 92 % 0 mm
19:33 14.6 °C 13.3 °C 1017.5 hPa SE 3.2 km/h 9.7 km/h 92 % 0 mm
19:38 14.6 °C 13.3 °C 1017.5 hPa SE 3.2 km/h 11.3 km/h 92 % 0 mm
19:43 14.6 °C 13.3 °C 1017.5 hPa East 6.4 km/h 11.3 km/h 92 % 0 mm
19:48 14.6 °C 13.3 °C 1017.5 hPa SE 6.4 km/h 11.3 km/h 92 % 0 mm
19:53 14.5 °C 13.2 °C 1017.5 hPa Calm   8 km/h 92 % 0 mm
19:58 14.4 °C 13.1 °C 1017.5 hPa SE 1.6 km/h 8 km/h 92 % 0 mm
20:03 14.4 °C 13.1 °C 1017.5 hPa SE 3.2 km/h 6.4 km/h 92 % 0 mm
20:08 14.4 °C 13.3 °C 1017.8 hPa SE 4.8 km/h 4.8 km/h 93 % 0 mm
20:13 14.4 °C 13.3 °C 1017.5 hPa Calm   8 km/h 93 % 0 mm
20:18 14.3 °C 13.2 °C 1017.8 hPa East 3.2 km/h 8 km/h 93 % 0 mm
20:23 14.3 °C 13.2 °C 1017.8 hPa SE 1.6 km/h 9.7 km/h 93 % 0 mm
20:28 14.3 °C 13.2 °C 1017.8 hPa SE 3.2 km/h 9.7 km/h 93 % 0 mm
20:33 14.3 °C 13.2 °C 1017.5 hPa ESE 1.6 km/h 9.7 km/h 93 % 0 mm
20:38 14.3 °C 13.3 °C 1017.5 hPa Calm   6.4 km/h 94 % 0 mm
20:43 14.3 °C 13.3 °C 1017.8 hPa SE 3.2 km/h 6.4 km/h 94 % 0 mm
20:48 14.3 °C 13.3 °C 1017.8 hPa Calm   6.4 km/h 94 % 0 mm
20:53 14.3 °C 13.3 °C 1017.8 hPa SE 1.6 km/h 6.4 km/h 94 % 0 mm
20:58 14.2 °C 13.2 °C 1017.5 hPa SE 1.6 km/h 6.4 km/h 94 % 0 mm
21:03 14.2 °C 13.2 °C 1017.8 hPa ESE 1.6 km/h 6.4 km/h 94 % 0 mm
21:08 14.2 °C 13.2 °C 1017.5 hPa SE 6.4 km/h 8 km/h 94 % 0 mm
21:13 14.2 °C 13.4 °C 1017.5 hPa East 1.6 km/h 9.7 km/h 95 % 0 mm
21:18 14.2 °C 13.4 °C 1017.5 hPa Calm   9.7 km/h 95 % 0 mm
21:23 14.2 °C 13.4 °C 1017.5 hPa East 1.6 km/h 9.7 km/h 95 % 0 mm
21:28 14.2 °C 13.4 °C 1017.5 hPa SE 4.8 km/h 8 km/h 95 % 0 mm
21:33 14.2 °C 13.4 °C 1017.5 hPa Calm   6.4 km/h 95 % 0 mm
21:38 14.2 °C 13.4 °C 1017.5 hPa ESE 4.8 km/h 8 km/h 95 % 0 mm
21:43 14.1 °C 13.3 °C 1017.8 hPa ESE 1.6 km/h 8 km/h 95 % 0 mm
21:48 14.1 °C 13.5 °C 1017.8 hPa East 3.2 km/h 8 km/h 96 % 0 mm
21:53 14.1 °C 13.5 °C 1017.8 hPa Calm   8 km/h 96 % 0 mm
21:58 14.1 °C 13.5 °C 1017.8 hPa Calm   8 km/h 96 % 0 mm
22:03 14.1 °C 13.5 °C 1017.8 hPa East 1.6 km/h 8 km/h 96 % 0 mm
22:08 14 °C 13.4 °C 1017.8 hPa Calm   6.4 km/h 96 % 0 mm
22:13 14 °C 13.4 °C 1018.2 hPa Calm   6.4 km/h 96 % 0 mm
22:18 14 °C 13.4 °C 1018.2 hPa North 1.6 km/h 6.4 km/h 96 % 0 mm
22:23 14 °C 13.4 °C 1018.2 hPa Calm   3.2 km/h 96 % 0 mm
22:28 14 °C 13.4 °C 1018.2 hPa Calm   3.2 km/h 96 % 0 mm
22:33 14 °C 13.4 °C 1018.2 hPa East 1.6 km/h 3.2 km/h 96 % 0 mm
22:38 14 °C 13.4 °C 1018.2 hPa NE 1.6 km/h 3.2 km/h 96 % 0 mm
22:43 14.1 °C 13.5 °C 1018.5 hPa Calm   3.2 km/h 96 % 0 mm
22:48 14 °C 13.4 °C 1018.5 hPa ESE 1.6 km/h 3.2 km/h 96 % 0 mm
22:53 14 °C 13.4 °C 1018.5 hPa Calm   1.6 km/h 96 % 0 mm
22:58 14 °C 13.4 °C 1018.5 hPa Calm   3.2 km/h 96 % 0 mm
23:03 14 °C 13.4 °C 1018.5 hPa Calm   3.2 km/h 96 % 0 mm
23:09 14 °C 13.4 °C 1018.5 hPa Calm   3.2 km/h 96 % 0 mm
23:14 14 °C 13.4 °C 1018.2 hPa Calm   1.6 km/h 96 % 0 mm
23:19 14 °C 13.4 °C 1018.5 hPa Calm   3.2 km/h 96 % 0 mm
23:24 14 °C 13.5 °C 1018.5 hPa Calm   3.2 km/h 97 % 0 mm
23:29 14 °C 13.5 °C 1018.5 hPa SE 1.6 km/h 3.2 km/h 97 % 0 mm
23:34 13.9 °C 13.4 °C 1018.2 hPa East 1.6 km/h 3.2 km/h 97 % 0 mm
23:39 13.9 °C 13.4 °C 1018.2 hPa Calm   4.8 km/h 97 % 0 mm
23:44 13.9 °C 13.4 °C 1018.2 hPa ESE 1.6 km/h 4.8 km/h 97 % 0 mm
23:49 13.9 °C 13.4 °C 1018.2 hPa ESE 1.6 km/h 4.8 km/h 97 % 0 mm
23:54 13.9 °C 13.4 °C 1018.2 hPa ESE 1.6 km/h 3.2 km/h 97 % 0 mm
23:59 13.9 °C 13.4 °C 1018.2 hPa ESE 3.2 km/h 6.4 km/h 97 % 0 mm
Spring, Texas: Villages of Bridgestone
Compliments of Weather Underground - 2.75 mb

Script developed by  Jim McMurry - jmcmurry@mwt.net Adapted for the template by  Wim van der Kuil - Leuven-Template.eu

You find our weather info also at:

UK Metoffice

WeatherCloud

Weather Underground

Mid-South Weather Network

AWEKAS

Citizen Weather Observer Program (CWOP)

HAMweather, WeatherForYou, PWS Weather

Equipment we use:

Weather-station
Davis Vantage Vue

Weather-program
Meteohub

Weather-server
Debian 7.9 x86 (Guest)

Provider
DreamHost

Davis Vantage Vue

Meteohub

Debian 7.9 x86 (Guest)

DreamHost